Time;durP1;ratioP1;P1;durP2;ratioP2;P2;SDS_P1;SDS_P2;PMS_P1;PMS_P2;Temp;Humidity;BMP_temperature;BMP_pressure;BME280_temperature;BME280_humidity;BME280_pressure;Samples;Min_cycle;Max_cycle;Signal;HPM_P1;HPM_P2
2024/01/13 00:01:23;;;;;;;28.90;13.05;;;;;;;;;;10441316;22;20043;-88
2024/01/13 00:05:35;;;;;;;18.20;8.85;;;;;;;;;;10414908;22;20085;-84
2024/01/13 00:09:37;;;;;;;20.77;10.13;;;;;;;;;;10415334;22;20521;-88
2024/01/13 00:13:40;;;;;;;30.67;12.70;;;;;;;;;;10441538;22;20094;-91
2024/01/13 00:17:46;;;;;;;28.88;14.85;;;;;;;;;;10413903;22;20073;-84
2024/01/13 00:21:49;;;;;;;29.77;11.60;;;;;;;;;;10413461;22;20058;-84
2024/01/13 00:25:53;;;;;;;25.98;11.75;;;;;;;;;;10413597;22;20023;-84
2024/01/13 00:29:58;;;;;;;23.38;10.52;;;;;;;;;;10430277;22;20148;-89
2024/01/13 00:34:04;;;;;;;32.10;14.27;;;;;;;;;;10413834;22;20081;-91
2024/01/13 00:38:08;;;;;;;28.30;13.32;;;;;;;;;;10413266;22;20092;-90
2024/01/13 00:42:11;;;;;;;28.30;12.30;;;;;;;;;;10414111;22;20027;-84
2024/01/13 00:46:14;;;;;;;28.70;12.20;;;;;;;;;;10441486;22;20019;-92
2024/01/13 00:50:19;;;;;;;26.65;12.30;;;;;;;;;;10413760;22;20034;-89
2024/01/13 00:54:22;;;;;;;17.98;7.97;;;;;;;;;;10441178;22;20015;-82
2024/01/13 00:58:25;;;;;;;35.55;12.73;;;;;;;;;;10441407;22;20150;-84
2024/01/13 01:02:28;;;;;;;31.13;13.07;;;;;;;;;;10413684;22;20027;-83
2024/01/13 01:06:33;;;;;;;28.65;13.50;;;;;;;;;;10414376;22;20019;-85
2024/01/13 01:10:36;;;;;;;27.27;11.15;;;;;;;;;;10442875;22;20393;-92
2024/01/13 01:14:39;;;;;;;15.88;8.02;;;;;;;;;;10413983;22;20325;-90
2024/01/13 01:18:42;;;;;;;10.23;6.22;;;;;;;;;;10440529;22;20023;-88
2024/01/13 01:22:46;;;;;;;21.60;10.00;;;;;;;;;;10440648;22;20019;-84
2024/01/13 01:26:49;;;;;;;20.35;8.73;;;;;;;;;;10441017;22;20026;-82
2024/01/13 01:30:52;;;;;;;18.42;7.68;;;;;;;;;;10443215;22;20439;-82
2024/01/13 01:34:54;;;;;;;18.25;7.82;;;;;;;;;;10441395;22;20602;-82
2024/01/13 01:38:59;;;;;;;15.18;7.53;;;;;;;;;;10441250;22;20012;-87
2024/01/13 01:43:02;;;;;;;12.15;5.57;;;;;;;;;;10440594;22;20019;-84
2024/01/13 01:47:08;;;;;;;22.20;7.15;;;;;;;;;;10442684;22;20019;-84
2024/01/13 01:51:11;;;;;;;14.55;6.85;;;;;;;;;;10413826;22;20019;-82
2024/01/13 01:55:16;;;;;;;17.80;7.63;;;;;;;;;;10440418;22;20015;-82
2024/01/13 01:59:20;;;;;;;16.85;7.25;;;;;;;;;;10413964;22;20019;-86
2024/01/13 02:03:23;;;;;;;17.98;8.75;;;;;;;;;;10416299;22;20019;-91
2024/01/13 02:07:27;;;;;;;12.60;6.57;;;;;;;;;;10416285;22;20459;-86
2024/01/13 02:11:32;;;;;;;15.15;6.80;;;;;;;;;;10417035;22;20026;-83
2024/01/13 02:15:35;;;;;;;16.08;6.60;;;;;;;;;;10443163;22;20107;-90
2024/01/13 02:19:39;;;;;;;13.65;6.95;;;;;;;;;;10416623;22;20439;-83
2024/01/13 02:23:46;;;;;;;12.93;6.50;;;;;;;;;;10416453;22;20045;-89
2024/01/13 02:27:50;;;;;;;17.58;6.50;;;;;;;;;;10419527;22;20020;-84
2024/01/13 02:31:53;;;;;;;21.75;6.72;;;;;;;;;;10416736;22;20148;-94
2024/01/13 02:35:56;;;;;;;18.02;7.20;;;;;;;;;;10416234;22;20043;-83
2024/01/13 02:40:00;;;;;;;13.50;6.10;;;;;;;;;;10415847;22;20486;-86
2024/01/13 02:44:04;;;;;;;18.33;7.03;;;;;;;;;;10442896;22;20073;-91
2024/01/13 02:48:11;;;;;;;20.02;7.55;;;;;;;;;;10416138;22;20030;-92
2024/01/13 02:52:14;;;;;;;17.10;6.95;;;;;;;;;;10416081;22;20023;-83
2024/01/13 02:56:18;;;;;;;19.02;7.38;;;;;;;;;;10444685;22;20574;-91
2024/01/13 03:00:21;;;;;;;14.80;6.63;;;;;;;;;;10457716;22;20023;-83
2024/01/13 03:04:24;;;;;;;17.58;7.72;;;;;;;;;;10449963;22;20015;-82
2024/01/13 03:08:27;;;;;;;17.40;7.60;;;;;;;;;;10418592;22;20023;-84
2024/01/13 03:12:33;;;;;;;14.15;6.25;;;;;;;;;;10414895;22;20098;-91
2024/01/13 03:16:36;;;;;;;16.70;7.50;;;;;;;;;;10415426;22;20027;-84
2024/01/13 03:20:39;;;;;;;13.63;7.25;;;;;;;;;;10414928;22;20023;-84
2024/01/13 03:24:42;;;;;;;17.65;8.07;;;;;;;;;;10417361;22;20023;-91
2024/01/13 03:28:48;;;;;;;25.40;7.90;;;;;;;;;;10416356;22;20452;-89
2024/01/13 03:32:51;;;;;;;13.70;6.55;;;;;;;;;;10414735;22;20023;-93
2024/01/13 03:36:54;;;;;;;19.52;8.55;;;;;;;;;;10415276;22;20026;-93
2024/01/13 03:40:58;;;;;;;22.25;10.52;;;;;;;;;;10370417;22;20043;-87
2024/01/13 03:45:03;;;;;;;12.93;6.45;;;;;;;;;;10339076;23;20016;-88
2024/01/13 03:49:09;;;;;;;23.55;10.02;;;;;;;;;;10355008;23;20074;-89
2024/01/13 03:53:12;;;;;;;18.33;8.65;;;;;;;;;;10355482;23;20016;-88
2024/01/13 03:57:15;;;;;;;20.15;9.05;;;;;;;;;;10389301;22;20332;-89
2024/01/13 04:01:20;;;;;;;16.70;7.35;;;;;;;;;;10388712;22;20087;-88
2024/01/13 04:05:23;;;;;;;20.85;8.70;;;;;;;;;;10387250;22;20305;-89
2024/01/13 04:09:27;;;;;;;17.58;7.75;;;;;;;;;;10388118;22;20024;-88
2024/01/13 04:13:30;;;;;;;15.45;7.57;;;;;;;;;;10388616;22;20019;-86
2024/01/13 04:17:37;;;;;;;18.83;8.23;;;;;;;;;;10387065;22;20027;-89
2024/01/13 04:21:41;;;;;;;16.50;7.63;;;;;;;;;;10386194;22;20024;-88
2024/01/13 04:25:44;;;;;;;17.20;8.50;;;;;;;;;;10386594;22;20035;-88
2024/01/13 04:29:47;;;;;;;16.08;7.30;;;;;;;;;;10386582;22;20447;-89
2024/01/13 04:33:54;;;;;;;15.40;6.88;;;;;;;;;;10386844;22;20098;-87
2024/01/13 04:37:57;;;;;;;15.68;8.55;;;;;;;;;;10386875;22;20028;-87
2024/01/13 04:42:00;;;;;;;16.27;7.82;;;;;;;;;;10387754;22;20020;-87
2024/01/13 04:46:03;;;;;;;14.52;6.78;;;;;;;;;;10387917;22;20521;-89
2024/01/13 04:50:08;;;;;;;14.75;7.55;;;;;;;;;;10388051;22;20492;-88
2024/01/13 04:54:11;;;;;;;18.55;9.13;;;;;;;;;;10387852;22;20055;-87
2024/01/13 04:58:15;;;;;;;8.55;4.10;;;;;;;;;;10374163;22;20105;-86
2024/01/13 05:02:18;;;;;;;17.70;7.85;;;;;;;;;;10438676;22;20391;-86
2024/01/13 05:06:23;;;;;;;11.35;6.28;;;;;;;;;;10438657;22;20021;-86
2024/01/13 05:10:26;;;;;;;12.82;5.63;;;;;;;;;;10411138;22;20546;-87
2024/01/13 05:14:30;;;;;;;14.45;5.72;;;;;;;;;;10439446;22;20398;-86
2024/01/13 05:18:33;;;;;;;16.05;8.02;;;;;;;;;;10438484;22;20363;-86
2024/01/13 05:22:37;;;;;;;18.60;8.13;;;;;;;;;;10438511;22;20442;-87
2024/01/13 05:26:41;;;;;;;11.57;5.78;;;;;;;;;;10438701;22;20034;-87
2024/01/13 05:30:44;;;;;;;12.30;6.57;;;;;;;;;;10411705;22;20072;-87
2024/01/13 05:34:48;;;;;;;17.08;8.02;;;;;;;;;;10439241;22;20118;-87
2024/01/13 05:38:53;;;;;;;19.05;7.75;;;;;;;;;;10390035;22;20017;-88
2024/01/13 05:42:55;;;;;;;19.70;8.00;;;;;;;;;;10442488;22;20022;-87
2024/01/13 05:46:58;;;;;;;19.42;8.50;;;;;;;;;;10442293;22;20110;-87
2024/01/13 05:51:04;;;;;;;16.92;7.43;;;;;;;;;;10442177;22;20451;-89
2024/01/13 05:55:12;;;;;;;16.30;7.63;;;;;;;;;;10442423;22;20090;-87
2024/01/13 05:59:15;;;;;;;15.93;8.18;;;;;;;;;;10415155;22;20050;-87
2024/01/13 06:03:19;;;;;;;10.38;5.13;;;;;;;;;;10414993;22;20445;-87
2024/01/13 06:07:23;;;;;;;14.40;6.47;;;;;;;;;;10414683;22;20019;-86
2024/01/13 06:11:29;;;;;;;19.13;8.20;;;;;;;;;;10414619;22;20034;-87
2024/01/13 06:15:32;;;;;;;22.42;10.18;;;;;;;;;;10414510;22;20439;-87
2024/01/13 06:19:36;;;;;;;13.43;6.78;;;;;;;;;;10414493;22;20030;-88
2024/01/13 06:23:39;;;;;;;18.95;8.10;;;;;;;;;;10413919;22;20065;-88
2024/01/13 06:27:46;;;;;;;19.50;7.82;;;;;;;;;;10441498;22;20046;-88
2024/01/13 06:31:50;;;;;;;18.20;8.13;;;;;;;;;;10414305;22;20070;-88
2024/01/13 06:35:53;;;;;;;19.75;8.05;;;;;;;;;;10414349;22;20030;-87
2024/01/13 06:39:56;;;;;;;9.20;5.03;;;;;;;;;;10441172;22;20021;-88
2024/01/13 06:44:00;;;;;;;15.20;6.22;;;;;;;;;;10441035;22;20058;-88
2024/01/13 06:48:03;;;;;;;14.73;6.97;;;;;;;;;;10440446;22;20023;-88
2024/01/13 06:52:08;;;;;;;17.50;7.68;;;;;;;;;;10440737;22;20023;-88
2024/01/13 06:56:12;;;;;;;14.75;5.90;;;;;;;;;;10413693;22;20451;-88
2024/01/13 07:00:17;;;;;;;18.48;7.30;;;;;;;;;;10440498;22;20349;-87
2024/01/13 07:04:20;;;;;;;14.43;7.43;;;;;;;;;;10457580;22;20042;-87
2024/01/13 07:08:23;;;;;;;18.90;9.38;;;;;;;;;;10440472;22;20062;-88
2024/01/13 07:12:26;;;;;;;23.38;10.02;;;;;;;;;;10440642;22;20015;-88
2024/01/13 07:16:32;;;;;;;17.50;8.35;;;;;;;;;;10440459;22;20039;-88
2024/01/13 07:20:35;;;;;;;20.25;9.32;;;;;;;;;;10457648;22;20494;-88
2024/01/13 07:24:38;;;;;;;22.83;11.07;;;;;;;;;;10440502;22;20446;-88
2024/01/13 07:28:43;;;;;;;19.35;8.45;;;;;;;;;;10440188;22;20027;-89
2024/01/13 07:32:47;;;;;;;25.10;10.23;;;;;;;;;;10439776;22;20015;-87
2024/01/13 07:36:51;;;;;;;25.85;11.10;;;;;;;;;;10440191;22;20030;-87
2024/01/13 07:40:54;;;;;;;26.60;11.73;;;;;;;;;;10413602;22;20049;-87
2024/01/13 07:44:57;;;;;;;23.77;11.40;;;;;;;;;;10439927;22;20045;-87
2024/01/13 07:49:02;;;;;;;22.85;10.23;;;;;;;;;;10413096;22;20023;-87
2024/01/13 07:53:05;;;;;;;24.23;10.27;;;;;;;;;;10457034;22;20031;-87
2024/01/13 07:57:57;;;;;;;30.88;15.00;;;;;;;;;;10402582;22;20474;-87
2024/01/13 08:02:25;;;;;;;23.90;10.95;;;;;;;;;;10439707;22;20086;-87
2024/01/13 08:10:40;;;;;;;23.88;10.05;;;;;;;;;;10429882;22;20062;-87
2024/01/13 08:14:44;;;;;;;18.50;8.02;;;;;;;;;;10412267;22;20015;-88
2024/01/13 08:18:46;;;;;;;20.85;9.52;;;;;;;;;;10411981;22;20026;-88
2024/01/13 08:22:50;;;;;;;21.27;9.48;;;;;;;;;;10439877;22;20019;-88
2024/01/13 08:36:28;;;;;;;22.65;8.75;;;;;;;;;;10373889;22;20088;-87
2024/01/13 08:40:57;;;;;;;14.70;6.32;;;;;;;;;;10456346;22;20031;-86
2024/01/13 08:50:10;;;;;;;24.92;11.23;;;;;;;;;;10437142;22;20050;-89
2024/01/13 08:54:23;;;;;;;23.20;9.90;;;;;;;;;;10457076;22;20023;-87
2024/01/13 08:58:26;;;;;;;23.67;10.77;;;;;;;;;;10439129;22;20019;-87
2024/01/13 09:08:04;;;;;;;27.45;12.43;;;;;;;;;;10438198;22;20022;-86
2024/01/13 09:17:24;;;;;;;26.77;10.15;;;;;;;;;;10430259;22;20035;-87
2024/01/13 09:21:38;;;;;;;27.95;11.13;;;;;;;;;;10390913;22;20090;-86
2024/01/13 09:25:41;;;;;;;21.17;10.18;;;;;;;;;;10391320;22;20436;-88
2024/01/13 09:29:46;;;;;;;18.67;8.57;;;;;;;;;;10364043;22;20027;-88
2024/01/13 09:33:50;;;;;;;23.00;9.48;;;;;;;;;;10391016;22;20189;-88
2024/01/13 09:37:54;;;;;;;20.88;9.52;;;;;;;;;;10391629;22;20019;-87
2024/01/13 09:41:59;;;;;;;22.05;9.80;;;;;;;;;;10391033;22;20039;-88
2024/01/13 09:46:02;;;;;;;28.45;12.23;;;;;;;;;;10390440;22;20371;-89
2024/01/13 09:50:08;;;;;;;22.58;7.20;;;;;;;;;;10363569;22;20098;-88
2024/01/13 09:54:13;;;;;;;22.13;10.63;;;;;;;;;;10364116;22;20028;-89
2024/01/13 09:58:17;;;;;;;33.53;11.85;;;;;;;;;;10407531;22;20031;-87
2024/01/13 10:02:19;;;;;;;33.85;13.18;;;;;;;;;;10363654;22;20023;-89
2024/01/13 10:06:25;;;;;;;37.30;16.77;;;;;;;;;;10390461;22;20020;-89
2024/01/13 10:10:28;;;;;;;41.83;15.43;;;;;;;;;;10390221;22;20106;-87
2024/01/13 10:14:31;;;;;;;42.50;15.25;;;;;;;;;;10390563;22;20046;-87
2024/01/13 10:18:34;;;;;;;32.25;13.70;;;;;;;;;;10389989;22;20055;-89
2024/01/13 10:22:40;;;;;;;31.48;12.63;;;;;;;;;;10363257;22;20023;-89
2024/01/13 10:26:43;;;;;;;23.02;10.45;;;;;;;;;;10363518;22;20023;-87
2024/01/13 10:30:50;;;;;;;33.95;12.57;;;;;;;;;;10390049;22;20455;-89
2024/01/13 10:34:54;;;;;;;32.63;12.80;;;;;;;;;;10407285;22;20020;-87
2024/01/13 10:39:00;;;;;;;26.35;11.15;;;;;;;;;;10390087;22;20098;-87
2024/01/13 10:43:07;;;;;;;28.55;11.35;;;;;;;;;;10407310;22;20087;-88
2024/01/13 10:47:15;;;;;;;38.35;15.27;;;;;;;;;;10406660;22;20015;-88
2024/01/13 10:51:27;;;;;;;25.85;10.25;;;;;;;;;;10406840;22;20020;-87
2024/01/13 10:55:32;;;;;;;;;;;;;;;;;;10390801;22;20019;-87
2024/01/13 10:59:37;;;;;;;22.20;8.70;;;;;;;;;;10389809;22;19946;-87
2024/01/13 11:03:42;;;;;;;31.10;12.60;;;;;;;;;;10390345;22;20011;-87
2024/01/13 11:07:45;;;;;;;28.48;12.35;;;;;;;;;;10363078;22;20024;-87
2024/01/13 11:12:05;;;;;;;23.52;11.02;;;;;;;;;;10389893;22;20019;-89
2024/01/13 11:25:48;;;;;;;28.25;11.85;;;;;;;;;;10189275;23;20076;-89
2024/01/13 11:29:52;;;;;;;45.88;17.58;;;;;;;;;;10237797;23;20043;-87
2024/01/13 11:43:44;;;;;;;66.60;30.03;;;;;;;;;;10337490;23;20082;-89
2024/01/13 11:47:54;;;;;;;26.88;11.13;;;;;;;;;;10338546;23;20028;-90
2024/01/13 12:16:54;;;;;;;17.27;8.20;;;;;;;;;;10312952;22;20032;-88
2024/01/13 13:01:05;;;;;;;19.13;9.02;;;;;;;;;;10388012;22;20054;-87
2024/01/13 13:05:17;;;;;;;18.70;8.35;;;;;;;;;;10420094;22;20015;-88
2024/01/13 13:09:20;;;;;;;12.40;7.22;;;;;;;;;;10457370;22;20019;-88
2024/01/13 13:13:24;;;;;;;26.92;13.98;;;;;;;;;;10439040;22;20438;-88
2024/01/13 13:17:28;;;;;;;19.27;8.50;;;;;;;;;;10440095;22;20015;-87
2024/01/13 13:21:31;;;;;;;29.17;10.73;;;;;;;;;;10439289;22;20057;-88
2024/01/13 13:25:36;;;;;;;22.35;9.95;;;;;;;;;;10439188;22;20022;-88
2024/01/13 13:29:39;;;;;;;20.55;10.70;;;;;;;;;;10439127;22;20465;-88
2024/01/13 13:33:43;;;;;;;18.30;9.45;;;;;;;;;;10439294;22;20041;-88
2024/01/13 13:37:48;;;;;;;21.70;12.73;;;;;;;;;;10439092;22;20023;-88
2024/01/13 13:41:52;;;;;;;18.30;9.25;;;;;;;;;;10411898;22;20029;-88
2024/01/13 13:45:55;;;;;;;21.38;10.50;;;;;;;;;;10411567;22;20090;-87
2024/01/13 13:54:38;;;;;;;14.30;7.63;;;;;;;;;;10378356;22;20447;-88
2024/01/13 13:58:44;;;;;;;19.52;10.63;;;;;;;;;;10338313;22;20016;-89
2024/01/13 14:02:50;;;;;;;21.10;9.85;;;;;;;;;;10407671;22;20015;-88
2024/01/13 14:06:58;;;;;;;25.30;10.88;;;;;;;;;;10390485;22;20020;-88
2024/01/13 14:11:11;;;;;;;27.17;13.35;;;;;;;;;;10407998;22;20062;-88
2024/01/13 14:15:25;;;;;;;30.13;14.75;;;;;;;;;;10408322;22;20026;-88
2024/01/13 14:19:29;;;;;;;19.58;10.45;;;;;;;;;;10407635;22;20015;-89
2024/01/13 14:23:39;;;;;;;21.20;9.85;;;;;;;;;;10383992;22;20035;-88
2024/01/13 14:27:57;;;;;;;25.05;10.25;;;;;;;;;;10363682;22;20081;-88
2024/01/13 14:32:12;;;;;;;23.80;10.50;;;;;;;;;;10406472;22;20023;-88
2024/01/13 14:36:15;;;;;;;22.92;12.02;;;;;;;;;;10431872;22;20500;-87
2024/01/13 14:40:21;;;;;;;22.67;9.48;;;;;;;;;;10415262;22;20016;-88
2024/01/13 14:44:36;;;;;;;42.17;17.48;;;;;;;;;;10433610;22;20022;-88
2024/01/13 14:48:40;;;;;;;171.40;67.50;;;;;;;;;;10428262;22;20019;-88
2024/01/13 14:52:46;;;;;;;117.22;49.15;;;;;;;;;;10414549;22;20023;-90
2024/01/13 14:56:49;;;;;;;17.58;9.35;;;;;;;;;;10416458;22;20035;-90
2024/01/13 15:00:56;;;;;;;29.35;12.85;;;;;;;;;;10394902;22;20044;-87
2024/01/13 15:05:03;;;;;;;30.13;10.90;;;;;;;;;;10410046;22;20022;-89
2024/01/13 15:09:06;;;;;;;18.05;8.40;;;;;;;;;;10392100;22;20388;-90
2024/01/13 15:13:09;;;;;;;30.05;14.35;;;;;;;;;;10391967;22;20062;-89
2024/01/13 15:17:17;;;;;;;14.43;6.63;;;;;;;;;;10393799;22;20016;-88
2024/01/13 15:21:24;;;;;;;22.45;11.10;;;;;;;;;;10412402;22;20470;-89
2024/01/13 15:25:30;;;;;;;21.00;8.15;;;;;;;;;;10395000;22;20027;-88
2024/01/13 15:29:37;;;;;;;50.47;22.23;;;;;;;;;;10394522;22;20020;-89
2024/01/13 15:33:43;;;;;;;20.85;8.45;;;;;;;;;;10409982;22;20069;-89
2024/01/13 15:37:53;;;;;;;11.18;5.88;;;;;;;;;;10409570;22;20011;-88
2024/01/13 15:42:00;;;;;;;15.73;7.72;;;;;;;;;;10342233;22;20339;-88
2024/01/13 15:46:05;;;;;;;17.00;8.20;;;;;;;;;;10406035;22;20026;-90
2024/01/13 15:50:11;;;;;;;20.77;10.15;;;;;;;;;;10390092;22;20058;-89
2024/01/13 15:54:14;;;;;;;25.08;10.38;;;;;;;;;;10392700;22;20031;-89
2024/01/13 15:58:23;;;;;;;32.63;14.38;;;;;;;;;;10388837;22;20030;-89
2024/01/13 16:02:28;;;;;;;27.08;11.68;;;;;;;;;;10389151;22;20497;-87
2024/01/13 16:06:39;;;;;;;41.28;15.27;;;;;;;;;;10388798;22;20093;-87
2024/01/13 16:10:44;;;;;;;28.50;12.80;;;;;;;;;;10405599;22;20039;-88
2024/01/13 16:14:49;;;;;;;16.95;7.15;;;;;;;;;;10388720;22;20026;-88
2024/01/13 16:18:54;;;;;;;16.50;9.45;;;;;;;;;;10388507;22;20434;-89
2024/01/13 16:23:05;;;;;;;20.08;9.77;;;;;;;;;;10361899;22;20325;-89
2024/01/13 16:27:10;;;;;;;24.23;11.98;;;;;;;;;;10405291;22;20502;-89
2024/01/13 16:31:13;;;;;;;14.88;6.68;;;;;;;;;;10388345;22;20329;-89
2024/01/13 16:35:21;;;;;;;17.35;8.35;;;;;;;;;;10388542;22;20043;-88
2024/01/13 16:39:30;;;;;;;14.40;8.02;;;;;;;;;;10361611;22;20762;-89
2024/01/13 16:43:41;;;;;;;12.15;7.32;;;;;;;;;;10361039;22;20077;-88
2024/01/13 16:48:24;;;;;;;15.63;6.63;;;;;;;;;;10405657;22;20491;-89
2024/01/13 16:52:27;;;;;;;12.93;7.13;;;;;;;;;;10360949;22;20084;-88
2024/01/13 16:56:32;;;;;;;14.65;7.28;;;;;;;;;;10332591;22;20024;-89
2024/01/13 17:00:47;;;;;;;9.93;5.63;;;;;;;;;;10303659;23;20027;-90
2024/01/13 17:04:53;;;;;;;21.52;9.35;;;;;;;;;;10278291;23;20020;-90
2024/01/13 17:09:03;;;;;;;15.05;6.60;;;;;;;;;;10266233;23;20162;-90
2024/01/13 17:13:12;;;;;;;24.05;12.00;;;;;;;;;;10266278;23;20345;-88
2024/01/13 17:17:15;;;;;;;14.60;7.10;;;;;;;;;;10306301;23;20027;-88
2024/01/13 17:21:20;;;;;;;15.27;6.80;;;;;;;;;;10288486;23;20017;-88
2024/01/13 17:25:23;;;;;;;24.88;10.82;;;;;;;;;;10286985;23;20013;-89
2024/01/13 17:29:30;;;;;;;20.25;9.70;;;;;;;;;;10286729;23;20027;-89
2024/01/13 17:33:35;;;;;;;15.55;7.10;;;;;;;;;;10290626;23;20021;-88
2024/01/13 17:37:39;;;;;;;23.77;10.85;;;;;;;;;;10290002;23;20024;-89
2024/01/13 17:41:42;;;;;;;15.07;7.60;;;;;;;;;;10290422;23;20016;-90
2024/01/13 17:45:51;;;;;;;21.27;9.52;;;;;;;;;;10289344;23;20035;-89
2024/01/13 17:49:56;;;;;;;34.47;12.18;;;;;;;;;;10290627;23;20028;-89
2024/01/13 17:54:00;;;;;;;15.43;6.85;;;;;;;;;;10290609;23;20024;-90
2024/01/13 17:58:03;;;;;;;21.23;8.77;;;;;;;;;;10290755;23;20027;-88
2024/01/13 18:02:11;;;;;;;12.85;6.78;;;;;;;;;;10290521;23;20357;-89
2024/01/13 18:06:14;;;;;;;16.33;8.07;;;;;;;;;;10289533;23;20021;-89
2024/01/13 18:10:17;;;;;;;20.75;9.82;;;;;;;;;;10289334;23;20017;-89
2024/01/13 18:14:21;;;;;;;14.25;7.38;;;;;;;;;;10289593;23;20134;-88
2024/01/13 18:18:39;;;;;;;18.63;9.57;;;;;;;;;;10289406;23;20017;-88
2024/01/13 18:22:45;;;;;;;12.05;5.72;;;;;;;;;;10262591;23;20055;-88
2024/01/13 18:26:48;;;;;;;14.35;8.30;;;;;;;;;;10289215;23;20460;-90
2024/01/13 18:30:51;;;;;;;15.50;8.43;;;;;;;;;;10262784;23;20091;-88
2024/01/13 18:34:57;;;;;;;13.20;7.20;;;;;;;;;;10289089;23;20017;-88
2024/01/13 18:39:00;;;;;;;11.73;5.63;;;;;;;;;;10289912;23;20024;-89
2024/01/13 18:43:03;;;;;;;15.88;7.28;;;;;;;;;;10288433;23;20452;-90
2024/01/13 18:47:06;;;;;;;9.57;4.80;;;;;;;;;;10289222;23;20028;-89
2024/01/13 18:51:10;;;;;;;14.40;7.80;;;;;;;;;;10289399;23;20463;-88
2024/01/13 18:55:13;;;;;;;15.98;7.07;;;;;;;;;;10289011;23;20070;-88
2024/01/13 18:59:47;;;;;;;9.73;4.38;;;;;;;;;;10288480;23;20024;-88
2024/01/13 19:03:53;;;;;;;31.20;12.77;;;;;;;;;;10305609;23;20096;-88
2024/01/13 19:08:03;;;;;;;13.27;6.00;;;;;;;;;;10262790;23;20175;-89
2024/01/13 19:12:07;;;;;;;14.38;7.50;;;;;;;;;;10288421;23;20040;-89
2024/01/13 19:16:14;;;;;;;17.50;6.82;;;;;;;;;;10288392;23;20016;-88
2024/01/13 19:20:20;;;;;;;13.27;5.75;;;;;;;;;;10288390;23;20338;-88
2024/01/13 19:24:29;;;;;;;11.52;5.82;;;;;;;;;;10305479;23;20449;-87
2024/01/13 19:28:34;;;;;;;34.35;13.85;;;;;;;;;;10304793;23;20024;-88
2024/01/13 19:32:38;;;;;;;28.20;14.02;;;;;;;;;;10288381;23;20021;-86
2024/01/13 19:36:50;;;;;;;61.22;21.13;;;;;;;;;;10288735;23;20457;-89
2024/01/13 19:50:40;;;;;;;16.40;7.53;;;;;;;;;;10289785;23;20450;-88
2024/01/13 19:54:44;;;;;;;18.23;8.98;;;;;;;;;;10288610;23;20078;-88
2024/01/13 19:58:49;;;;;;;6.53;3.95;;;;;;;;;;10288298;23;20075;-88
2024/01/13 20:02:52;;;;;;;29.23;11.95;;;;;;;;;;10288667;23;20047;-87
2024/01/13 20:06:59;;;;;;;18.50;9.35;;;;;;;;;;10304706;23;20397;-88
2024/01/13 20:11:07;;;;;;;13.52;7.38;;;;;;;;;;10260876;23;20063;-88
2024/01/13 20:15:15;;;;;;;14.57;7.57;;;;;;;;;;10304381;23;20349;-88
2024/01/13 20:19:18;;;;;;;14.98;7.32;;;;;;;;;;10304095;23;20353;-88
2024/01/13 20:23:21;;;;;;;42.70;17.50;;;;;;;;;;10287609;23;20020;-88
2024/01/13 20:27:24;;;;;;;27.00;11.82;;;;;;;;;;10287469;23;20020;-89
2024/01/13 20:31:31;;;;;;;32.65;15.30;;;;;;;;;;10287714;23;20024;-89
2024/01/13 20:35:34;;;;;;;23.08;12.40;;;;;;;;;;10304128;23;20024;-90
2024/01/13 20:39:40;;;;;;;30.05;15.10;;;;;;;;;;10287477;23;20483;-90
2024/01/13 20:43:43;;;;;;;21.98;10.43;;;;;;;;;;10287369;23;20363;-90
2024/01/13 20:47:57;;;;;;;19.58;9.32;;;;;;;;;;10303799;23;20794;-87
2024/01/13 20:52:00;;;;;;;19.58;10.13;;;;;;;;;;10304426;23;20021;-88
2024/01/13 20:56:06;;;;;;;18.95;9.88;;;;;;;;;;10299412;23;20027;-89
2024/01/13 21:00:14;;;;;;;19.50;9.70;;;;;;;;;;10289790;23;20021;-88
2024/01/13 21:04:24;;;;;;;21.27;10.13;;;;;;;;;;10287588;23;20397;-89
2024/01/13 21:08:28;;;;;;;18.40;9.98;;;;;;;;;;10304402;23;20059;-88
2024/01/13 21:12:41;;;;;;;16.02;7.30;;;;;;;;;;10260345;23;20025;-88
2024/01/13 21:16:45;;;;;;;17.73;9.50;;;;;;;;;;10304049;23;20024;-88
2024/01/13 21:20:51;;;;;;;19.85;10.63;;;;;;;;;;10291950;23;20027;-89
2024/01/13 21:24:56;;;;;;;19.17;9.35;;;;;;;;;;10303794;23;20340;-88
2024/01/13 21:29:00;;;;;;;18.60;9.30;;;;;;;;;;10287328;23;20364;-89
2024/01/13 21:33:07;;;;;;;13.88;8.18;;;;;;;;;;10287122;23;20467;-87
2024/01/13 21:37:19;;;;;;;21.42;11.00;;;;;;;;;;10303478;23;20504;-89
2024/01/13 21:41:22;;;;;;;14.30;7.53;;;;;;;;;;10303421;23;20074;-88
2024/01/13 21:45:26;;;;;;;15.23;8.07;;;;;;;;;;10259875;23;20518;-85
2024/01/13 21:49:32;;;;;;;20.05;9.57;;;;;;;;;;10260778;23;20048;-89
2024/01/13 21:53:37;;;;;;;17.58;10.10;;;;;;;;;;10303220;23;20377;-89
2024/01/13 21:57:39;;;;;;;16.75;8.05;;;;;;;;;;10286731;23;20055;-87
2024/01/13 22:01:42;;;;;;;15.02;8.48;;;;;;;;;;10286761;23;20054;-89
2024/01/13 22:05:46;;;;;;;6.50;4.15;;;;;;;;;;10286522;23;20026;-88
2024/01/13 22:09:53;;;;;;;16.48;10.00;;;;;;;;;;10259882;23;20095;-87
2024/01/13 22:13:57;;;;;;;16.83;9.15;;;;;;;;;;10260042;23;20094;-88
2024/01/13 22:18:00;;;;;;;18.00;10.35;;;;;;;;;;10315517;22;20374;-88
2024/01/13 22:22:06;;;;;;;11.13;5.65;;;;;;;;;;10330603;23;20020;-88
2024/01/13 22:26:11;;;;;;;16.27;7.75;;;;;;;;;;10340170;23;20099;-88
2024/01/13 22:30:15;;;;;;;18.88;10.35;;;;;;;;;;10356319;23;20094;-88
2024/01/13 22:34:18;;;;;;;16.35;8.13;;;;;;;;;;10313859;23;20520;-87
2024/01/13 22:38:22;;;;;;;14.48;7.13;;;;;;;;;;10313575;23;20051;-87
2024/01/13 22:42:28;;;;;;;10.48;5.60;;;;;;;;;;10339659;23;20437;-88
2024/01/13 22:46:32;;;;;;;16.48;7.50;;;;;;;;;;10262966;23;20024;-89
2024/01/13 22:50:35;;;;;;;14.63;8.45;;;;;;;;;;10349372;23;20070;-87
2024/01/13 22:54:44;;;;;;;18.45;10.38;;;;;;;;;;10313386;23;20373;-88
2024/01/13 23:48:30;;;;;;;20.30;9.07;;;;;;;;;;10388804;22;20027;-87
2024/01/13 23:52:34;;;;;;;15.52;7.97;;;;;;;;;;10405841;22;20015;-89
2024/01/13 23:56:37;;;;;;;14.43;7.68;;;;;;;;;;10388984;22;20099;-90
